createdAt,value
2019-04-05T00:00:30.321Z,6.20
2019-04-05T00:01:30.300Z,6.28
2019-04-05T00:02:30.290Z,6.24
2019-04-05T00:03:30.286Z,6.30
2019-04-05T00:04:30.284Z,6.19
2019-04-05T00:05:30.268Z,6.20
2019-04-05T00:06:30.243Z,6.20
2019-04-05T00:07:30.234Z,6.08
2019-04-05T00:08:30.226Z,6.20
2019-04-05T00:09:30.236Z,6.11
2019-04-05T00:10:30.204Z,6.17
2019-04-05T00:11:30.185Z,6.16
2019-04-05T00:12:30.171Z,6.14
2019-04-05T00:13:30.173Z,6.17
2019-04-05T00:14:30.179Z,6.08
2019-04-05T00:15:30.156Z,6.20
2019-04-05T00:16:30.139Z,6.16
2019-04-05T00:17:30.122Z,6.16
2019-04-05T00:18:30.114Z,6.14
2019-04-05T00:19:30.159Z,6.16
2019-04-05T00:20:30.121Z,6.16
2019-04-05T00:21:30.081Z,6.14
2019-04-05T00:22:30.060Z,6.11
2019-04-05T00:23:30.061Z,6.11
2019-04-05T00:24:30.074Z,6.16
2019-04-05T00:25:30.055Z,6.16
2019-04-05T00:26:30.030Z,6.10
2019-04-05T00:27:30.040Z,6.16
2019-04-05T00:28:30.022Z,6.11
2019-04-05T00:29:30.015Z,6.13
2019-04-05T00:30:29.984Z,6.17
2019-04-05T00:31:29.979Z,6.13
2019-04-05T00:32:30.139Z,6.24
2019-04-05T00:33:29.946Z,6.24
2019-04-05T00:34:29.954Z,6.14
2019-04-05T00:35:29.936Z,6.17
2019-04-05T00:36:29.926Z,6.13
2019-04-05T00:37:29.912Z,6.17
2019-04-05T00:38:29.895Z,6.20
2019-04-05T00:39:29.902Z,6.20
2019-04-05T00:40:29.880Z,6.20
2019-04-05T00:41:32.840Z,6.16
2019-04-05T00:42:29.854Z,6.13
2019-04-05T00:43:29.850Z,6.20
2019-04-05T00:44:29.855Z,6.30
2019-04-05T00:45:29.827Z,6.20
2019-04-05T00:46:29.817Z,6.25
2019-04-05T00:47:29.810Z,6.17
2019-04-05T00:48:29.789Z,6.17
2019-04-05T00:49:29.791Z,6.24
2019-04-05T00:50:29.758Z,6.28
2019-04-05T00:51:29.768Z,6.21
2019-04-05T00:52:29.742Z,6.21
2019-04-05T00:53:29.730Z,6.27
2019-04-05T00:54:29.744Z,6.24
2019-04-05T00:55:29.741Z,6.25
2019-04-05T00:56:29.699Z,6.21
2019-04-05T00:57:29.693Z,6.30
2019-04-05T00:58:29.671Z,6.20
2019-04-05T00:59:29.683Z,6.25
2019-04-05T01:00:29.648Z,6.14
2019-04-05T01:01:29.660Z,6.24
2019-04-05T01:02:29.627Z,6.20
2019-04-05T01:03:29.639Z,6.21
2019-04-05T01:04:29.638Z,6.16
2019-04-05T01:05:29.625Z,6.20
2019-04-05T01:06:29.583Z,6.27
2019-04-05T01:07:29.596Z,6.28
2019-04-05T01:08:29.557Z,6.24
2019-04-05T01:09:29.566Z,6.24
2019-04-05T01:10:29.564Z,6.25
2019-04-05T01:11:29.565Z,6.21
2019-04-05T01:12:31.796Z,6.20
2019-04-05T01:13:29.515Z,6.25
2019-04-05T01:14:29.502Z,6.21
2019-04-05T01:15:40.232Z,6.25
2019-04-05T01:16:29.480Z,6.27
2019-04-05T01:17:29.470Z,6.21
2019-04-05T01:18:29.455Z,6.28
2019-04-05T01:19:29.464Z,6.24
2019-04-05T01:20:29.447Z,6.24
2019-04-05T01:21:29.446Z,6.19
2019-04-05T01:22:29.413Z,6.21
2019-04-05T01:23:29.403Z,6.21
2019-04-05T01:24:29.432Z,6.21
2019-04-05T01:25:29.410Z,6.19
2019-04-05T01:26:29.374Z,6.25
2019-04-05T01:27:29.365Z,6.24
2019-04-05T01:30:00.441Z,6.21
2019-04-05T01:31:01.406Z,6.21
2019-04-05T01:32:01.407Z,6.20
2019-04-05T01:33:01.403Z,6.25
2019-04-05T01:34:01.395Z,6.25
2019-04-05T01:35:01.394Z,6.19
2019-04-05T01:36:01.376Z,6.28
2019-04-05T01:37:01.373Z,6.25
2019-04-05T01:38:01.331Z,6.24
2019-04-05T01:39:01.338Z,6.24
2019-04-05T01:40:01.343Z,6.20
2019-04-05T01:41:01.316Z,6.21
2019-04-05T01:42:01.293Z,6.25
2019-04-05T01:43:01.283Z,6.17
2019-04-05T01:44:01.271Z,6.19
2019-04-05T01:45:01.305Z,6.17
2019-04-05T01:46:01.246Z,6.27
2019-04-05T01:47:01.265Z,6.17
2019-04-05T01:48:01.248Z,6.28
2019-04-05T01:49:01.221Z,6.33
2019-04-05T01:50:01.274Z,6.20
2019-04-05T01:51:01.207Z,6.27
2019-04-05T01:52:01.176Z,6.25
2019-04-05T01:53:01.171Z,6.20
2019-04-05T01:54:01.166Z,6.19
2019-04-05T01:55:01.175Z,6.24
2019-04-05T01:56:01.160Z,6.19
2019-04-05T01:57:01.131Z,6.19
2019-04-05T01:58:01.117Z,6.19
2019-04-05T01:59:01.108Z,6.17
2019-04-05T02:00:01.104Z,6.24
2019-04-05T02:01:01.121Z,6.27
2019-04-05T02:02:01.072Z,6.20
2019-04-05T02:03:01.063Z,6.19
2019-04-05T02:04:01.061Z,6.24
2019-04-05T02:05:01.039Z,6.25
2019-04-05T02:06:01.055Z,6.27
2019-04-05T02:07:01.018Z,6.21
2019-04-05T02:08:01.015Z,6.24
2019-04-05T02:09:01.010Z,6.25
2019-04-05T02:10:00.993Z,6.24
2019-04-05T02:11:00.989Z,6.25
2019-04-05T02:12:00.962Z,6.30
2019-04-05T02:13:00.985Z,6.17
2019-04-05T02:14:00.942Z,6.28
2019-04-05T02:15:00.948Z,6.25
2019-04-05T02:16:06.536Z,6.25
2019-04-05T02:17:00.924Z,6.20
2019-04-05T02:18:00.926Z,6.25
2019-04-05T02:19:00.896Z,6.21
2019-04-05T02:20:00.877Z,6.21
2019-04-05T02:21:00.897Z,6.24
2019-04-05T02:22:00.870Z,6.19
2019-04-05T02:23:00.848Z,6.30
2019-04-05T02:24:00.839Z,6.21
2019-04-05T02:25:00.822Z,6.25
2019-04-05T02:26:00.843Z,6.25
2019-04-05T02:27:00.814Z,6.13
2019-04-05T02:28:00.793Z,6.20
2019-04-05T02:29:00.776Z,6.24
2019-04-05T02:30:00.778Z,6.24
2019-04-05T02:31:00.787Z,6.20
2019-04-05T02:32:00.749Z,6.20
2019-04-05T02:33:00.743Z,6.17
2019-04-05T02:34:00.729Z,6.16
2019-04-05T02:35:00.725Z,6.20
2019-04-05T02:36:00.727Z,6.19
2019-04-05T02:37:00.707Z,6.24
2019-04-05T02:38:00.701Z,6.11
2019-04-05T02:39:00.675Z,6.20
2019-04-05T02:40:00.664Z,6.19
2019-04-05T02:41:00.687Z,6.20
2019-04-05T02:42:00.634Z,6.19
2019-04-05T02:43:00.643Z,6.24
2019-04-05T02:44:00.641Z,6.24
2019-04-05T02:45:00.633Z,6.19
2019-04-05T02:46:00.648Z,6.20
2019-04-05T02:47:00.595Z,6.24
2019-04-05T02:48:00.594Z,6.20
2019-04-05T02:49:00.569Z,6.30
2019-04-05T02:50:00.564Z,6.25
2019-04-05T02:51:00.572Z,6.25
2019-04-05T02:52:00.545Z,6.21
2019-04-05T02:53:00.538Z,6.20
2019-04-05T02:54:00.526Z,6.20
2019-04-05T02:55:00.517Z,6.25
2019-04-05T02:56:02.973Z,6.27
2019-04-05T02:57:00.539Z,6.19
2019-04-05T02:58:00.505Z,6.25
2019-04-05T02:59:00.469Z,6.20
2019-04-05T03:00:00.455Z,6.19
2019-04-05T03:01:00.459Z,6.20
2019-04-05T03:02:00.430Z,6.27
2019-04-05T03:03:00.424Z,6.24
2019-04-05T03:04:00.407Z,6.24
2019-04-05T03:05:00.392Z,6.19
2019-04-05T03:06:00.404Z,6.20
2019-04-05T03:07:00.386Z,6.21
2019-04-05T03:08:00.388Z,6.28
2019-04-05T03:09:00.370Z,6.17
2019-04-05T03:10:00.366Z,6.17
2019-04-05T03:11:00.349Z,6.27
2019-04-05T03:12:00.320Z,6.24
2019-04-05T03:13:00.321Z,6.19
2019-04-05T03:14:00.294Z,6.20
2019-04-05T03:15:00.296Z,6.19
2019-04-05T03:16:00.326Z,6.24
2019-04-05T03:17:00.297Z,6.17
2019-04-05T03:18:00.287Z,6.25
2019-04-05T03:19:00.266Z,6.25
2019-04-05T03:20:00.230Z,6.21
2019-04-05T03:21:00.242Z,6.21
2019-04-05T03:22:00.208Z,6.21
2019-04-05T03:23:00.205Z,6.25
2019-04-05T03:24:00.189Z,6.20
2019-04-05T03:25:00.190Z,6.25
2019-04-05T03:26:00.244Z,6.27
2019-04-05T03:27:00.155Z,6.24
2019-04-05T03:28:00.168Z,6.21
2019-04-05T03:29:00.170Z,6.25
2019-04-05T03:33:43.565Z,6.20
2019-04-05T03:34:44.551Z,6.24
2019-04-05T03:35:44.527Z,6.21
2019-04-05T03:36:44.536Z,6.24
2019-04-05T03:37:44.500Z,6.21
2019-04-05T03:38:44.486Z,6.24
2019-04-05T03:39:44.486Z,6.21
2019-04-05T03:40:44.471Z,6.27
2019-04-05T03:41:44.473Z,6.24
2019-04-05T03:42:44.448Z,6.21
2019-04-05T03:43:44.439Z,6.25
2019-04-05T03:44:44.420Z,6.27
2019-04-05T03:45:44.411Z,6.20
2019-04-05T03:46:56.297Z,6.19
2019-04-05T03:47:44.391Z,6.21
2019-04-05T03:48:44.389Z,6.20
2019-04-05T03:49:44.366Z,6.19
2019-04-05T03:50:45.322Z,6.24
2019-04-05T03:51:44.364Z,6.21
2019-04-05T03:52:44.346Z,6.25
2019-04-05T03:53:44.323Z,6.20
2019-04-05T03:54:44.311Z,6.24
2019-04-05T03:55:44.321Z,6.21
2019-04-05T03:56:44.311Z,6.24
2019-04-05T03:57:44.281Z,6.21
2019-04-05T03:58:44.269Z,6.30
2019-04-05T03:59:44.259Z,6.25
2019-04-05T04:00:44.240Z,6.20
2019-04-05T04:01:44.258Z,6.20
2019-04-05T04:02:44.224Z,6.21
2019-04-05T04:03:44.209Z,6.25
2019-04-05T04:04:44.193Z,6.25
2019-04-05T04:05:44.180Z,6.21
2019-04-05T04:06:44.207Z,6.27
2019-04-05T04:07:44.161Z,6.19
2019-04-05T04:08:44.155Z,6.19
2019-04-05T04:09:44.166Z,6.30
2019-04-05T04:10:44.148Z,6.16
2019-04-05T04:11:44.148Z,6.24
2019-04-05T04:12:44.145Z,6.25
2019-04-05T04:13:44.110Z,6.28
2019-04-05T04:14:44.101Z,6.27
2019-04-05T04:15:44.163Z,6.28
2019-04-05T04:16:44.083Z,6.25
2019-04-05T04:17:44.098Z,6.19
2019-04-05T04:18:44.053Z,6.24
2019-04-05T04:19:44.077Z,6.21
2019-04-05T04:20:44.041Z,6.19
2019-04-05T04:21:44.011Z,6.27
2019-04-05T04:22:44.038Z,6.20
2019-04-05T04:23:44.011Z,6.20
2019-04-05T04:24:44.870Z,6.25
2019-04-05T04:25:43.966Z,6.25
2019-04-05T04:26:43.965Z,6.21
2019-04-05T04:27:43.961Z,6.25
2019-04-05T04:28:44.000Z,6.24
2019-04-05T04:29:43.933Z,6.25
2019-04-05T04:30:43.916Z,6.27
2019-04-05T04:31:43.902Z,6.25
2019-04-05T04:32:43.952Z,6.19
2019-04-05T04:33:43.886Z,6.24
2019-04-05T04:34:43.895Z,6.21
2019-04-05T04:35:43.866Z,6.28
2019-04-05T04:36:43.858Z,6.24
2019-04-05T04:37:43.857Z,6.27
2019-04-05T04:38:43.838Z,6.28
2019-04-05T04:39:43.810Z,6.24
2019-04-05T04:40:43.807Z,6.25
2019-04-05T04:41:43.784Z,6.24
2019-04-05T04:42:43.792Z,6.21
2019-04-05T04:43:43.768Z,6.25
2019-04-05T04:44:43.765Z,6.25
2019-04-05T04:45:43.745Z,6.27
2019-04-05T04:46:43.734Z,6.20
2019-04-05T04:47:43.760Z,6.27
2019-04-05T04:48:43.706Z,6.19
2019-04-05T04:49:43.719Z,6.24
2019-04-05T04:50:43.720Z,6.21
2019-04-05T04:51:43.690Z,6.25
2019-04-05T04:52:43.689Z,6.24
2019-04-05T04:53:43.654Z,6.25
2019-04-05T04:54:43.653Z,6.27
2019-04-05T04:55:43.637Z,6.25
2019-04-05T04:56:43.633Z,6.19
2019-04-05T04:57:43.624Z,6.19
2019-04-05T04:58:46.232Z,6.28
2019-04-05T04:59:43.607Z,6.19
2019-04-05T05:00:43.581Z,6.17
2019-04-05T05:01:43.608Z,6.30
2019-04-05T05:02:43.584Z,6.21
2019-04-05T05:03:43.562Z,6.24
2019-04-05T05:04:43.570Z,6.27
2019-04-05T05:05:43.519Z,6.17
2019-04-05T05:06:43.514Z,6.25
2019-04-05T05:07:43.523Z,6.19
2019-04-05T05:08:43.500Z,6.19
2019-04-05T05:09:43.480Z,6.24
2019-04-05T05:10:43.480Z,6.24
2019-04-05T05:11:43.464Z,6.27
2019-04-05T05:12:43.477Z,6.21
2019-04-05T05:13:43.448Z,6.16
2019-04-05T05:14:43.449Z,6.27
2019-04-05T05:15:43.430Z,6.24
2019-04-05T05:16:43.415Z,6.20
2019-04-05T05:17:43.422Z,6.20
2019-04-05T05:18:43.387Z,6.24
2019-04-05T05:19:43.402Z,6.19
2019-04-05T05:20:43.411Z,6.21
2019-04-05T05:21:43.345Z,6.27
2019-04-05T05:22:43.370Z,6.27
2019-04-05T05:23:43.325Z,6.28
2019-04-05T05:24:43.334Z,6.24
2019-04-05T05:25:43.337Z,6.27
2019-04-05T05:26:43.334Z,6.25
2019-04-05T05:27:43.298Z,6.27
2019-04-05T05:28:43.264Z,6.30
2019-04-05T05:29:43.260Z,6.25
2019-04-05T05:30:44.230Z,6.25
2019-04-05T05:31:43.282Z,6.32
2019-04-05T05:32:43.259Z,6.20
2019-04-05T05:35:04.819Z,6.28
2019-04-05T05:36:05.819Z,6.30
2019-04-05T05:37:05.840Z,6.24
2019-04-05T05:38:06.213Z,6.25
2019-04-05T05:39:05.785Z,6.24
2019-04-05T05:40:06.097Z,6.30
2019-04-05T05:41:06.680Z,6.21
2019-04-05T05:42:05.942Z,6.27
2019-04-05T05:43:05.774Z,6.24
2019-04-05T05:44:05.756Z,6.33
2019-04-05T05:45:05.689Z,6.32
2019-04-05T05:46:05.777Z,6.32
2019-04-05T05:47:05.681Z,6.32
2019-04-05T05:48:05.779Z,6.24
2019-04-05T05:49:05.682Z,6.28
2019-04-05T05:50:05.640Z,6.33
2019-04-05T05:51:05.764Z,6.27
2019-04-05T05:52:05.643Z,6.24
2019-04-05T05:53:05.628Z,6.24
2019-04-05T05:54:05.592Z,6.27
2019-04-05T05:55:06.501Z,6.20
2019-04-05T05:56:05.570Z,6.21
2019-04-05T05:57:05.561Z,6.25
2019-04-05T05:58:05.641Z,6.24
2019-04-05T05:59:05.533Z,6.19
2019-04-05T06:00:06.713Z,6.19
2019-04-05T06:01:05.527Z,6.19
2019-04-05T06:02:07.236Z,6.21
2019-04-05T06:03:06.379Z,6.30
2019-04-05T06:04:05.535Z,6.39
2019-04-05T06:05:05.473Z,6.35
2019-04-05T06:06:05.469Z,6.35
2019-04-05T06:07:05.527Z,6.39
2019-04-05T06:08:05.499Z,6.40
2019-04-05T06:09:06.423Z,6.32
2019-04-05T06:10:06.479Z,6.39
2019-04-05T06:11:05.411Z,6.45
2019-04-05T06:12:05.397Z,6.46
2019-04-05T06:13:07.268Z,6.42
2019-04-05T06:14:05.391Z,6.42
2019-04-05T06:15:05.389Z,6.43
2019-04-05T06:16:06.183Z,6.45
2019-04-05T06:17:05.341Z,6.30
2019-04-05T06:18:05.389Z,6.33
2019-04-05T06:19:05.404Z,6.46
2019-04-05T06:20:05.298Z,6.51
2019-04-05T06:21:05.319Z,6.46
2019-04-05T06:22:05.292Z,6.39
2019-04-05T06:23:05.321Z,6.36
2019-04-05T06:24:05.479Z,6.42
2019-04-05T06:25:05.270Z,6.39
2019-04-05T06:26:05.240Z,6.39
2019-04-05T06:27:05.229Z,6.40
2019-04-05T06:28:05.287Z,6.36
2019-04-05T06:29:05.265Z,6.42
2019-04-05T06:30:05.565Z,6.39
2019-04-05T06:31:05.198Z,6.30
2019-04-05T06:32:05.181Z,6.43
2019-04-05T06:33:05.314Z,6.36
2019-04-05T06:34:05.203Z,6.32
2019-04-05T06:35:05.182Z,6.33
2019-04-05T06:36:05.165Z,6.39
2019-04-05T06:37:05.160Z,6.40
2019-04-05T06:38:05.239Z,6.30
2019-04-05T06:39:05.197Z,6.24
2019-04-05T06:40:05.170Z,6.27
2019-04-05T06:41:05.719Z,6.33
2019-04-05T06:42:05.282Z,6.33
2019-04-05T06:43:06.686Z,6.27
2019-04-05T06:44:05.228Z,6.32
2019-04-05T06:45:05.118Z,6.25
2019-04-05T06:46:05.200Z,6.32
2019-04-05T06:47:05.027Z,6.33
2019-04-05T06:48:18.024Z,6.25
2019-04-05T06:49:05.003Z,6.20
2019-04-05T06:50:04.992Z,6.21
2019-04-05T06:51:04.974Z,6.13
2019-04-05T06:52:04.998Z,6.11
2019-04-05T06:53:04.983Z,6.17
2019-04-05T06:54:05.006Z,6.19
2019-04-05T06:55:04.944Z,6.17
2019-04-05T06:56:04.914Z,6.20
2019-04-05T06:57:04.946Z,6.14
2019-04-05T06:58:04.923Z,6.24
2019-04-05T06:59:04.876Z,6.21
2019-04-05T07:00:05.436Z,6.21
2019-04-05T07:01:04.862Z,6.20
2019-04-05T07:02:04.901Z,6.14
2019-04-05T07:03:04.868Z,6.24
2019-04-05T07:04:05.458Z,6.19
2019-04-05T07:05:04.823Z,6.19
2019-04-05T07:06:04.819Z,6.20
2019-04-05T07:07:05.005Z,6.24
2019-04-05T07:08:04.842Z,6.20
2019-04-05T07:09:04.782Z,6.24
2019-04-05T07:10:04.775Z,6.25
2019-04-05T07:11:04.758Z,6.36
2019-04-05T07:12:04.745Z,6.24
2019-04-05T07:13:04.868Z,6.28
2019-04-05T07:14:04.710Z,6.28
2019-04-05T07:15:04.721Z,6.28
2019-04-05T07:16:04.686Z,6.24
2019-04-05T07:17:07.687Z,6.25
2019-04-05T07:18:04.713Z,6.19
2019-04-05T07:19:04.666Z,6.24
2019-04-05T07:20:04.655Z,6.28
2019-04-05T07:21:04.680Z,6.36
2019-04-05T07:22:04.623Z,6.33
2019-04-05T07:23:04.624Z,6.27
2019-04-05T07:24:04.626Z,6.20
2019-04-05T07:25:04.598Z,6.25
2019-04-05T07:26:04.624Z,6.33
2019-04-05T07:27:04.577Z,6.38
2019-04-05T07:28:04.561Z,6.33
2019-04-05T07:29:04.574Z,6.38
2019-04-05T07:30:04.742Z,6.48
2019-04-05T07:31:04.533Z,6.45
2019-04-05T07:32:04.519Z,6.46
2019-04-05T07:33:04.527Z,6.50
2019-04-05T07:34:04.534Z,6.45
2019-04-05T07:36:14.046Z,6.61
2019-04-05T07:37:15.468Z,6.64
2019-04-05T07:38:15.022Z,6.53
2019-04-05T07:39:14.992Z,6.55
2019-04-05T07:40:15.041Z,6.55
2019-04-05T07:41:15.068Z,6.58
2019-04-05T07:42:15.045Z,6.60
2019-04-05T07:43:15.026Z,6.53
2019-04-05T07:44:15.041Z,6.51
2019-04-05T07:45:15.056Z,6.51
2019-04-05T07:46:14.908Z,6.55
2019-04-05T07:47:14.900Z,6.55
2019-04-05T07:48:14.888Z,6.60
2019-04-05T07:49:14.897Z,6.61
2019-04-05T07:50:15.007Z,6.58
2019-04-05T07:51:14.928Z,6.48
2019-04-05T07:52:14.854Z,6.60
2019-04-05T07:53:14.838Z,6.71
2019-04-05T07:54:14.843Z,6.73
2019-04-05T07:55:14.931Z,6.73
2019-04-05T07:56:14.850Z,6.69
2019-04-05T07:57:14.805Z,6.65
2019-04-05T07:58:14.851Z,6.69
2019-04-05T07:59:14.924Z,6.71
2019-04-05T08:00:15.047Z,6.73
2019-04-05T08:01:14.872Z,6.64
2019-04-05T08:02:14.746Z,6.63
2019-04-05T08:03:14.816Z,6.63
2019-04-05T08:04:16.236Z,6.82
2019-04-05T08:05:15.126Z,6.68
2019-04-05T08:06:14.876Z,6.78
2019-04-05T08:07:14.773Z,6.65
2019-04-05T08:08:14.717Z,6.71
2019-04-05T08:09:14.700Z,6.69
2019-04-05T08:10:14.674Z,6.78
2019-04-05T08:11:14.768Z,6.78
2019-04-05T08:12:15.105Z,6.86
2019-04-05T08:18:57.027Z,6.78
2019-04-05T08:19:47.425Z,6.64
2019-04-05T08:20:47.682Z,6.81
2019-04-05T08:21:47.410Z,6.72
2019-04-05T08:22:47.400Z,6.76
2019-04-05T08:23:47.430Z,6.87
2019-04-05T08:24:47.434Z,6.68
2019-04-05T08:25:47.405Z,6.79
2019-04-05T08:26:47.368Z,6.89
2019-04-05T08:27:47.345Z,6.90
2019-04-05T08:28:47.449Z,6.93
2019-04-05T08:29:47.309Z,7.04
2019-04-05T08:30:47.300Z,6.96
2019-04-05T08:31:47.359Z,7.14
2019-04-05T08:32:47.436Z,7.01
2019-04-05T08:33:47.290Z,6.96
2019-04-05T08:34:47.295Z,7.08
2019-04-05T08:35:47.300Z,6.89
2019-04-05T08:36:47.257Z,7.08
2019-04-05T08:37:47.275Z,7.18
2019-04-05T08:38:47.953Z,7.01
2019-04-05T08:39:47.200Z,7.04
2019-04-05T08:40:48.284Z,7.18
2019-04-05T08:41:51.804Z,7.30
2019-04-05T08:42:47.242Z,7.29
2019-04-05T08:43:47.486Z,7.30
2019-04-05T08:44:47.186Z,7.44
2019-04-05T08:45:47.181Z,7.39
2019-04-05T08:46:47.154Z,7.30
2019-04-05T08:47:47.137Z,7.36
2019-04-05T08:48:47.202Z,7.32
2019-04-05T08:49:47.103Z,7.33
2019-04-05T08:50:47.103Z,7.45
2019-04-05T08:51:47.132Z,7.39
2019-04-05T08:52:47.265Z,7.39
2019-04-05T08:53:47.582Z,7.47
2019-04-05T08:54:47.162Z,7.48
2019-04-05T08:55:47.037Z,7.47
2019-04-05T08:56:47.016Z,7.42
2019-04-05T08:57:48.183Z,7.48
2019-04-05T08:58:47.050Z,7.48
2019-04-05T08:59:47.073Z,7.39
2019-04-05T09:00:47.047Z,7.45
2019-04-05T09:01:46.959Z,7.47
2019-04-05T09:02:47.049Z,7.71
2019-04-05T09:03:47.086Z,7.42
2019-04-05T09:04:46.956Z,7.41
2019-04-05T09:05:46.943Z,7.55
2019-04-05T09:06:46.908Z,7.62
2019-04-05T09:07:46.908Z,7.60
2019-04-05T09:08:46.894Z,7.69
2019-04-05T09:09:46.953Z,7.70
2019-04-05T09:10:46.902Z,7.79
2019-04-05T09:11:46.912Z,7.77
2019-04-05T09:12:46.847Z,7.71
2019-04-05T09:13:46.888Z,7.74
2019-04-05T09:14:49.621Z,7.84
2019-04-05T09:15:52.446Z,7.95
2019-04-05T09:16:46.806Z,7.91
2019-04-05T09:17:46.785Z,7.91
2019-04-05T09:18:49.286Z,7.95
2019-04-05T09:19:46.786Z,7.92
2019-04-05T09:20:46.732Z,7.95
2019-04-05T09:21:46.733Z,8.03
2019-04-05T09:22:46.782Z,7.88
2019-04-05T09:23:46.712Z,7.79
2019-04-05T09:24:46.747Z,7.63
2019-04-05T09:25:46.699Z,7.69
2019-04-05T09:26:46.679Z,7.69
2019-04-05T09:27:46.704Z,7.55
2019-04-05T09:28:46.676Z,7.69
2019-04-05T09:29:46.693Z,7.66
2019-04-05T09:30:46.668Z,7.67
2019-04-05T09:31:46.613Z,7.60
2019-04-05T09:32:46.692Z,7.50
2019-04-05T09:33:46.627Z,7.45
2019-04-05T09:34:46.631Z,7.55
2019-04-05T09:35:46.585Z,7.67
2019-04-05T09:36:46.587Z,7.70
2019-04-05T09:37:46.588Z,7.70
2019-04-05T09:38:46.563Z,7.52
2019-04-05T09:39:46.596Z,7.47
2019-04-05T09:40:46.528Z,7.45
2019-04-05T09:41:46.549Z,7.42
2019-04-05T09:42:46.829Z,7.45
2019-04-05T09:43:46.686Z,7.48
2019-04-05T09:44:46.748Z,7.51
2019-04-05T09:45:46.517Z,7.39
2019-04-05T09:46:50.846Z,7.39
2019-04-05T09:47:46.572Z,7.44
2019-04-05T09:48:46.484Z,7.44
2019-04-05T09:49:46.501Z,7.58
2019-04-05T09:50:50.291Z,7.63
2019-04-05T09:51:46.446Z,7.55
2019-04-05T09:52:46.747Z,7.57
2019-04-05T09:53:48.747Z,7.69
2019-04-05T09:54:46.418Z,7.62
2019-04-05T09:55:50.823Z,7.52
2019-04-05T09:56:48.605Z,7.51
2019-04-05T09:57:46.389Z,7.44
2019-04-05T09:58:46.332Z,7.52
2019-04-05T09:59:46.344Z,7.50
2019-04-05T10:00:46.388Z,7.60
2019-04-05T10:01:48.949Z,7.60
2019-04-05T10:02:51.112Z,7.58
2019-04-05T10:03:50.924Z,7.51
2019-04-05T10:04:51.151Z,7.47
2019-04-05T10:05:47.581Z,7.47
2019-04-05T10:06:47.198Z,7.57
2019-04-05T10:07:55.457Z,7.45
2019-04-05T10:08:49.630Z,7.62
2019-04-05T10:09:49.065Z,7.70
2019-04-05T10:10:47.573Z,7.76
2019-04-05T10:11:47.636Z,7.79
2019-04-05T10:12:46.403Z,7.66
2019-04-05T10:13:48.259Z,7.73
2019-04-05T10:14:46.195Z,7.58
2019-04-05T10:15:46.166Z,7.58
2019-04-05T10:16:46.131Z,7.60
2019-04-05T10:17:46.128Z,7.67
2019-04-05T10:19:56.303Z,7.69
2019-04-05T10:20:56.344Z,7.85
2019-04-05T10:21:56.354Z,7.82
2019-04-05T10:22:56.323Z,7.74
2019-04-05T10:23:56.351Z,7.71
2019-04-05T10:25:04.065Z,7.67
2019-04-05T10:25:57.142Z,7.71
2019-04-05T10:26:56.275Z,7.67
2019-04-05T10:27:56.381Z,7.60
2019-04-05T10:28:56.308Z,7.71
2019-04-05T10:29:56.367Z,7.69
2019-04-05T10:30:56.587Z,7.77
2019-04-05T10:31:56.232Z,7.82
2019-04-05T10:32:56.310Z,7.81
2019-04-05T10:33:56.217Z,7.69
2019-04-05T10:34:56.369Z,7.63
2019-04-05T10:35:57.020Z,7.69
2019-04-05T10:36:56.301Z,7.67
2019-04-05T10:37:58.314Z,7.66
2019-04-05T10:38:56.301Z,7.71
2019-04-05T10:39:56.242Z,7.60
2019-04-05T10:40:56.125Z,7.66
2019-04-05T10:42:03.207Z,7.71
2019-04-05T10:42:56.129Z,7.67
2019-04-05T10:43:58.448Z,7.71
2019-04-05T10:44:56.188Z,7.76
2019-04-05T10:45:56.087Z,7.73
2019-04-05T10:46:56.087Z,7.67
2019-04-05T10:47:56.073Z,7.77
2019-04-05T10:48:56.047Z,7.85
2019-04-05T10:50:03.097Z,7.77
2019-04-05T10:50:58.796Z,7.92
2019-04-05T10:51:55.994Z,8.02
2019-04-05T10:52:56.965Z,8.02
2019-04-05T10:53:55.985Z,8.00
2019-04-05T10:54:58.027Z,8.09
2019-04-05T10:55:56.000Z,8.06
2019-04-05T10:56:56.285Z,8.04
2019-04-05T10:57:55.928Z,7.91
2019-04-05T10:58:55.917Z,8.04
2019-04-05T10:59:56.627Z,8.00
2019-04-05T11:00:55.933Z,8.12
2019-04-05T11:01:55.896Z,8.12
2019-04-05T11:02:56.036Z,8.02
2019-04-05T11:03:55.950Z,8.02
2019-04-05T11:04:55.857Z,8.07
2019-04-05T11:05:55.956Z,8.10
2019-04-05T11:06:55.861Z,8.06
2019-04-05T11:07:55.924Z,7.99
2019-04-05T11:08:55.828Z,7.99
2019-04-05T11:09:55.794Z,8.04
2019-04-05T11:10:55.818Z,8.04
2019-04-05T11:11:55.837Z,8.06
2019-04-05T11:12:55.772Z,8.03
2019-04-05T11:13:55.775Z,7.96
2019-04-05T11:14:55.746Z,7.91
2019-04-05T11:15:55.782Z,8.04
2019-04-05T11:16:58.717Z,8.00
2019-04-05T11:17:55.715Z,8.02
2019-04-05T11:18:55.704Z,8.03
2019-04-05T11:19:55.684Z,8.03
2019-04-05T11:20:55.702Z,8.00
2019-04-05T11:21:55.662Z,8.13
2019-04-05T11:22:55.656Z,8.02
2019-04-05T11:23:56.380Z,7.99
2019-04-05T11:24:55.623Z,7.95
2019-04-05T11:25:55.632Z,7.95
2019-04-05T11:26:55.602Z,8.03
2019-04-05T11:27:55.600Z,8.03
2019-04-05T11:28:55.591Z,8.04
2019-04-05T11:29:57.870Z,7.99
2019-04-05T11:30:55.579Z,7.94
2019-04-05T11:31:57.397Z,8.03
2019-04-05T11:32:55.538Z,7.99
2019-04-05T11:33:55.536Z,8.00
2019-04-05T11:34:55.529Z,8.03
2019-04-05T11:35:57.901Z,8.00
2019-04-05T11:36:55.495Z,8.04
2019-04-05T11:37:55.485Z,8.10
2019-04-05T11:38:55.470Z,8.07
2019-04-05T11:39:55.470Z,7.99
2019-04-05T11:40:55.474Z,8.03
2019-04-05T11:41:55.440Z,7.86
2019-04-05T11:42:55.438Z,7.77
2019-04-05T11:43:55.417Z,7.84
2019-04-05T11:44:55.423Z,7.84
2019-04-05T11:45:55.416Z,7.86
2019-04-05T11:46:55.387Z,8.00
2019-04-05T11:47:55.721Z,7.81
2019-04-05T11:48:55.383Z,7.81
2019-04-05T11:49:55.401Z,7.99
2019-04-05T11:50:55.379Z,7.91
2019-04-05T11:51:55.336Z,7.95
2019-04-05T11:52:55.341Z,7.89
2019-04-05T11:53:55.309Z,7.95
2019-04-05T11:54:55.296Z,7.89
2019-04-05T11:55:55.317Z,7.91
2019-04-05T11:56:55.285Z,7.96
2019-04-05T11:57:55.263Z,7.91
2019-04-05T11:58:55.258Z,7.81
2019-04-05T11:59:55.249Z,7.81
2019-04-05T12:00:55.247Z,7.84
2019-04-05T12:01:55.234Z,7.88
2019-04-05T12:02:55.220Z,7.99
2019-04-05T12:03:55.269Z,7.99
2019-04-05T12:04:55.202Z,7.94
2019-04-05T12:05:55.191Z,7.96
2019-04-05T12:06:55.176Z,8.03
2019-04-05T12:08:00.623Z,8.03
2019-04-05T12:08:55.153Z,8.03
2019-04-05T12:09:55.129Z,8.03
2019-04-05T12:10:55.143Z,8.00
2019-04-05T12:11:55.112Z,8.03
2019-04-05T12:12:55.104Z,7.96
2019-04-05T12:13:55.096Z,7.95
2019-04-05T12:14:55.075Z,7.94
2019-04-05T12:15:57.936Z,8.06
2019-04-05T12:16:55.058Z,8.14
2019-04-05T12:17:55.056Z,8.20
2019-04-05T12:18:55.037Z,8.25
2019-04-05T12:21:05.744Z,8.21
2019-04-05T12:22:05.872Z,8.25
2019-04-05T12:23:05.204Z,8.17
2019-04-05T12:24:05.183Z,8.20
2019-04-05T12:25:05.196Z,8.20
2019-04-05T12:26:05.215Z,8.21
2019-04-05T12:27:05.586Z,8.24
2019-04-05T12:28:06.964Z,8.13
2019-04-05T12:29:05.144Z,8.07
2019-04-05T12:30:05.132Z,8.03
2019-04-05T12:31:05.119Z,7.95
2019-04-05T12:32:05.134Z,8.02
2019-04-05T12:33:13.784Z,7.86
2019-04-05T12:34:05.079Z,7.85
2019-04-05T12:35:08.128Z,7.81
2019-04-05T12:36:05.070Z,7.85
2019-04-05T12:37:05.072Z,7.74
2019-04-05T12:38:06.976Z,7.84
2019-04-05T12:39:08.096Z,7.76
2019-04-05T12:40:05.314Z,7.82
2019-04-05T12:41:05.018Z,7.77
2019-04-05T12:42:05.012Z,7.88
2019-04-05T12:43:04.996Z,7.96
2019-04-05T12:44:04.980Z,8.06
2019-04-05T12:45:04.959Z,8.02
2019-04-05T12:46:04.963Z,7.91
2019-04-05T12:47:04.973Z,7.99
2019-04-05T12:48:04.929Z,8.06
2019-04-05T12:49:04.926Z,8.02
2019-04-05T12:50:04.910Z,7.95
2019-04-05T12:51:05.688Z,8.04
2019-04-05T12:52:04.925Z,8.03
2019-04-05T12:53:04.884Z,7.99
2019-04-05T12:54:04.862Z,7.96
2019-04-05T12:55:04.854Z,8.07
2019-04-05T12:56:04.836Z,7.91
2019-04-05T12:57:04.858Z,7.99
2019-04-05T12:58:04.827Z,7.94
2019-04-05T12:59:04.820Z,8.02
2019-04-05T13:00:04.812Z,8.00
2019-04-05T13:01:04.802Z,8.09
2019-04-05T13:02:04.820Z,7.89
2019-04-05T13:03:04.768Z,7.96
2019-04-05T13:04:04.747Z,8.03
2019-04-05T13:05:04.744Z,8.10
2019-04-05T13:06:04.739Z,8.03
2019-04-05T13:07:04.740Z,8.07
2019-04-05T13:08:04.713Z,8.06
2019-04-05T13:09:05.858Z,8.10
2019-04-05T13:10:04.699Z,8.12
2019-04-05T13:11:04.709Z,8.12
2019-04-05T13:12:04.696Z,8.07
2019-04-05T13:13:04.661Z,8.13
2019-04-05T13:14:04.640Z,8.09
2019-04-05T13:15:12.363Z,8.04
2019-04-05T13:16:04.631Z,8.13
2019-04-05T13:17:04.635Z,8.13
2019-04-05T13:18:04.612Z,8.17
2019-04-05T13:19:04.597Z,8.22
2019-04-05T13:20:04.577Z,8.27
2019-04-05T13:21:14.501Z,8.20
2019-04-05T13:22:04.597Z,8.20
2019-04-05T13:23:06.488Z,8.21
2019-04-05T13:24:09.211Z,8.27
2019-04-05T13:25:06.074Z,8.31
2019-04-05T13:26:04.517Z,8.24
2019-04-05T13:27:04.507Z,8.27
2019-04-05T13:28:13.354Z,8.25
2019-04-05T13:29:04.497Z,8.27
2019-04-05T13:30:04.481Z,8.31
2019-04-05T13:31:04.458Z,8.24
2019-04-05T13:32:04.443Z,8.14
2019-04-05T13:33:04.452Z,8.02
2019-04-05T13:34:05.928Z,7.89